createdAt,value
2019-03-16T00:00:15.970Z,85.00
2019-03-16T00:02:46.778Z,84.70
2019-03-16T00:05:15.969Z,84.40
2019-03-16T00:07:45.166Z,84.80
2019-03-16T00:10:14.361Z,85.00
2019-03-16T00:12:43.544Z,85.30
2019-03-16T00:15:12.734Z,85.30
2019-03-16T00:17:41.921Z,85.50
2019-03-16T00:20:12.736Z,85.60
2019-03-16T00:22:41.930Z,85.70
2019-03-16T00:25:11.097Z,85.80
2019-03-16T00:27:40.281Z,85.90
2019-03-16T00:30:11.614Z,85.90
2019-03-16T00:32:40.790Z,85.90
2019-03-16T00:35:09.973Z,85.90
2019-03-16T00:37:39.511Z,86.00
2019-03-16T00:40:11.585Z,86.00
2019-03-16T00:42:41.756Z,86.10
2019-03-16T00:45:12.080Z,86.10
2019-03-16T00:47:41.260Z,86.00
2019-03-16T00:50:11.690Z,86.10
2019-03-16T00:52:40.881Z,86.20
2019-03-16T00:55:10.844Z,86.40
2019-03-16T00:57:40.018Z,86.30
2019-03-16T01:00:17.148Z,86.20
2019-03-16T01:02:46.320Z,86.20
2019-03-16T01:05:15.501Z,86.30
2019-03-16T01:07:44.751Z,86.40
2019-03-16T01:10:14.278Z,86.60
2019-03-16T01:12:43.471Z,86.70
2019-03-16T01:15:13.182Z,86.80
2019-03-16T01:17:42.374Z,86.80
2019-03-16T01:20:12.384Z,87.00
2019-03-16T01:22:42.646Z,87.20
2019-03-16T01:25:13.158Z,87.50
2019-03-16T01:27:42.409Z,87.50
2019-03-16T01:30:14.309Z,87.50
2019-03-16T01:32:43.674Z,87.60
2019-03-16T01:35:13.071Z,87.90
2019-03-16T01:37:42.280Z,88.00
2019-03-16T01:40:12.726Z,88.20
2019-03-16T01:42:41.955Z,88.50
2019-03-16T01:45:11.633Z,86.60
2019-03-16T01:47:40.912Z,87.10
2019-03-16T01:50:11.378Z,88.30
2019-03-16T01:52:40.650Z,88.70
2019-03-16T01:55:10.247Z,89.80
2019-03-16T01:57:39.479Z,89.90
2019-03-16T02:00:13.034Z,91.40
2019-03-16T02:02:54.336Z,91.40
2019-03-16T02:05:13.170Z,92.00
2019-03-16T02:07:42.395Z,92.30
2019-03-16T02:10:11.854Z,93.00
2019-03-16T02:12:41.133Z,93.30
2019-03-16T02:15:10.334Z,93.30
2019-03-16T02:17:39.559Z,93.20
2019-03-16T02:20:09.571Z,93.10
2019-03-16T02:22:38.793Z,93.20
2019-03-16T02:25:08.931Z,93.30
2019-03-16T02:27:38.156Z,93.20
2019-03-16T02:30:10.203Z,93.30
2019-03-16T02:32:39.416Z,93.10
2019-03-16T02:35:08.793Z,92.70
2019-03-16T02:37:38.078Z,92.90
2019-03-16T02:40:10.942Z,92.60
2019-03-16T02:42:40.153Z,92.90
2019-03-16T02:45:10.228Z,92.80
2019-03-16T02:47:39.486Z,93.40
2019-03-16T02:50:10.343Z,93.60
2019-03-16T02:52:39.583Z,93.40
2019-03-16T02:55:09.313Z,93.50
2019-03-16T02:57:39.663Z,93.30
2019-03-16T03:00:11.949Z,93.30
2019-03-16T03:02:41.303Z,93.30
2019-03-16T03:05:11.209Z,93.40
2019-03-16T03:07:40.881Z,93.30
2019-03-16T03:10:12.686Z,93.60
2019-03-16T03:12:42.271Z,93.40
2019-03-16T03:15:11.702Z,93.60
2019-03-16T03:17:40.981Z,93.50
2019-03-16T03:20:10.730Z,93.90
2019-03-16T03:22:39.927Z,93.70
2019-03-16T03:25:09.285Z,93.70
2019-03-16T03:27:38.490Z,93.80
2019-03-16T03:30:12.399Z,93.60
2019-03-16T03:32:41.680Z,93.60
2019-03-16T03:35:10.954Z,93.70
2019-03-16T03:37:40.167Z,93.50
2019-03-16T03:40:11.267Z,93.60
2019-03-16T03:42:40.496Z,93.80
2019-03-16T03:45:11.232Z,94.10
2019-03-16T03:47:40.524Z,94.20
2019-03-16T03:50:13.712Z,94.30
2019-03-16T03:52:42.941Z,92.80
2019-03-16T03:55:13.263Z,92.40
2019-03-16T03:57:43.629Z,92.80
2019-03-16T04:00:15.140Z,92.80
2019-03-16T04:02:44.460Z,92.80
2019-03-16T04:05:13.966Z,92.90
2019-03-16T04:07:43.190Z,92.60
2019-03-16T04:10:13.518Z,92.30
2019-03-16T04:12:43.103Z,92.20
2019-03-16T04:15:13.270Z,91.60
2019-03-16T04:17:42.836Z,91.50
2019-03-16T04:20:13.520Z,91.60
2019-03-16T04:22:43.700Z,91.40
2019-03-16T04:25:12.992Z,91.30
2019-03-16T04:27:42.208Z,91.30
2019-03-16T04:30:12.849Z,90.90
2019-03-16T04:32:42.127Z,91.00
2019-03-16T04:35:11.424Z,90.90
2019-03-16T04:37:40.635Z,90.80
2019-03-16T04:40:11.322Z,90.90
2019-03-16T04:42:40.528Z,90.90
2019-03-16T04:45:11.287Z,90.90
2019-03-16T04:47:41.547Z,90.80
2019-03-16T04:50:12.264Z,90.60
2019-03-16T04:52:42.450Z,90.60
2019-03-16T04:55:11.761Z,90.80
2019-03-16T04:57:40.964Z,91.20
2019-03-16T05:00:14.226Z,91.10
2019-03-16T05:02:43.435Z,91.10
2019-03-16T05:05:12.655Z,91.10
2019-03-16T05:07:41.863Z,91.20
2019-03-16T05:10:11.728Z,91.30
2019-03-16T05:12:41.999Z,91.30
2019-03-16T05:15:11.244Z,91.50
2019-03-16T05:17:40.513Z,91.70
2019-03-16T05:20:11.447Z,92.00
2019-03-16T05:22:40.673Z,92.30
2019-03-16T05:25:11.049Z,92.50
2019-03-16T05:27:40.297Z,92.60
2019-03-16T05:30:12.028Z,92.30
2019-03-16T05:32:41.266Z,92.20
2019-03-16T05:35:10.537Z,92.00
2019-03-16T05:37:39.748Z,92.00
2019-03-16T05:40:10.187Z,92.00
2019-03-16T05:42:39.415Z,91.70
2019-03-16T05:45:09.398Z,91.40
2019-03-16T05:47:38.590Z,91.30
2019-03-16T05:50:14.655Z,91.30
2019-03-16T05:52:43.855Z,91.20
2019-03-16T05:55:13.083Z,90.90
2019-03-16T05:57:42.297Z,91.00
2019-03-16T06:00:14.124Z,90.40
2019-03-16T06:02:43.347Z,90.40
2019-03-16T06:05:12.728Z,89.80
2019-03-16T06:07:41.956Z,89.90
2019-03-16T06:10:12.300Z,89.50
2019-03-16T06:12:41.613Z,89.20
2019-03-16T06:15:11.504Z,89.40
2019-03-16T06:17:41.065Z,89.00
2019-03-16T06:20:12.224Z,88.60
2019-03-16T06:22:42.618Z,88.80
2019-03-16T06:25:11.924Z,88.20
2019-03-16T06:27:41.129Z,88.40
2019-03-16T06:30:14.460Z,88.40
2019-03-16T06:32:43.774Z,88.10
2019-03-16T06:35:24.079Z,88.00
2019-03-16T06:37:44.033Z,87.80
2019-03-16T06:40:14.388Z,87.70
2019-03-16T06:42:43.608Z,87.70
2019-03-16T06:45:12.995Z,87.30
2019-03-16T06:47:42.227Z,87.00
2019-03-16T06:50:13.071Z,87.40
2019-03-16T06:52:42.299Z,87.50
2019-03-16T06:55:12.457Z,87.60
2019-03-16T06:57:41.696Z,87.80
2019-03-16T07:00:13.216Z,87.40
2019-03-16T07:02:42.502Z,87.30
2019-03-16T07:05:12.470Z,87.50
2019-03-16T07:07:41.694Z,87.70
2019-03-16T07:10:14.276Z,87.50
2019-03-16T07:12:43.473Z,87.50
2019-03-16T07:15:14.173Z,87.40
2019-03-16T07:17:43.402Z,87.50
2019-03-16T07:20:14.050Z,87.50
2019-03-16T07:22:43.279Z,87.70
2019-03-16T07:25:12.751Z,88.00
2019-03-16T07:27:41.966Z,88.00
2019-03-16T07:30:14.391Z,88.40
2019-03-16T07:32:43.618Z,88.70
2019-03-16T07:35:12.834Z,89.00
2019-03-16T07:37:42.371Z,89.40
2019-03-16T07:40:12.907Z,89.90
2019-03-16T07:42:42.167Z,90.00
2019-03-16T07:45:12.516Z,90.20
2019-03-16T07:47:41.739Z,90.50
2019-03-16T07:50:12.496Z,90.70
2019-03-16T07:52:41.719Z,90.80
2019-03-16T07:55:11.371Z,91.00
2019-03-16T07:57:40.904Z,91.00
2019-03-16T08:00:12.611Z,91.10
2019-03-16T08:02:41.838Z,91.20
2019-03-16T08:05:18.812Z,91.00
2019-03-16T08:07:43.206Z,91.00
2019-03-16T08:10:12.918Z,91.00
2019-03-16T08:12:42.142Z,91.00
2019-03-16T08:15:11.685Z,91.10
2019-03-16T08:17:40.983Z,90.60
2019-03-16T08:20:11.528Z,90.70
2019-03-16T08:22:40.756Z,90.40
2019-03-16T08:25:10.249Z,90.20
2019-03-16T08:27:53.018Z,90.20
2019-03-16T08:30:12.332Z,90.10
2019-03-16T08:32:41.925Z,90.30
2019-03-16T08:35:11.446Z,90.00
2019-03-16T08:37:40.676Z,89.30
2019-03-16T08:40:11.035Z,89.30
2019-03-16T08:42:40.269Z,89.10
2019-03-16T08:45:10.112Z,90.20
2019-03-16T08:47:39.335Z,89.70
2019-03-16T08:50:10.476Z,89.00
2019-03-16T08:52:39.708Z,88.40
2019-03-16T08:55:09.947Z,86.90
2019-03-16T08:57:39.179Z,86.80
2019-03-16T09:00:13.470Z,86.40
2019-03-16T09:02:42.871Z,86.20
2019-03-16T09:05:12.093Z,85.90
2019-03-16T09:07:41.372Z,85.70
2019-03-16T09:10:11.706Z,85.30
2019-03-16T09:12:50.094Z,84.80
2019-03-16T09:15:13.952Z,85.00
2019-03-16T09:17:43.172Z,84.90
2019-03-16T09:20:12.451Z,84.90
2019-03-16T09:22:41.684Z,85.20
2019-03-16T09:25:11.303Z,85.00
2019-03-16T09:27:40.503Z,84.10
2019-03-16T09:30:14.727Z,84.10
2019-03-16T09:32:43.934Z,84.50
2019-03-16T09:35:13.233Z,84.70
2019-03-16T09:37:42.464Z,84.90
2019-03-16T09:40:11.760Z,84.10
2019-03-16T09:42:40.994Z,83.80
2019-03-16T09:45:11.618Z,84.20
2019-03-16T09:47:40.867Z,84.70
2019-03-16T09:50:12.242Z,84.90
2019-03-16T09:52:41.444Z,84.30
2019-03-16T09:55:12.020Z,84.90
2019-03-16T09:57:41.220Z,84.50
2019-03-16T10:00:13.363Z,84.70
2019-03-16T10:02:42.563Z,84.90
2019-03-16T10:05:11.797Z,84.70
2019-03-16T10:07:40.998Z,84.30
2019-03-16T10:10:14.547Z,84.30
2019-03-16T10:12:43.754Z,84.20
2019-03-16T10:15:14.197Z,84.10
2019-03-16T10:17:43.420Z,84.00
2019-03-16T10:20:14.616Z,83.60
2019-03-16T10:22:43.947Z,83.90
2019-03-16T10:25:13.147Z,83.30
2019-03-16T10:27:42.353Z,83.00
2019-03-16T10:30:13.019Z,83.60
2019-03-16T10:32:42.650Z,83.80
2019-03-16T10:35:11.872Z,84.00
2019-03-16T10:37:41.079Z,84.20
2019-03-16T10:40:14.120Z,84.20
2019-03-16T10:42:43.339Z,83.80
2019-03-16T10:45:12.759Z,83.30
2019-03-16T10:47:41.975Z,83.20
2019-03-16T10:50:12.534Z,83.10
2019-03-16T10:52:41.817Z,82.60
2019-03-16T10:55:11.175Z,83.00
2019-03-16T10:57:40.381Z,82.80
2019-03-16T11:00:16.768Z,82.40
2019-03-16T11:02:47.034Z,82.10
2019-03-16T11:05:16.265Z,81.50
2019-03-16T11:07:45.506Z,81.20
2019-03-16T11:10:15.142Z,81.40
2019-03-16T11:12:44.385Z,80.10
2019-03-16T11:15:14.326Z,79.40
2019-03-16T11:17:43.578Z,79.50
2019-03-16T11:20:14.520Z,79.50
2019-03-16T11:22:44.794Z,80.20
2019-03-16T11:25:14.086Z,79.80
2019-03-16T11:27:43.298Z,79.40
2019-03-16T11:30:15.104Z,78.60
2019-03-16T11:32:44.330Z,78.90
2019-03-16T11:35:13.532Z,78.80
2019-03-16T11:37:43.131Z,77.40
2019-03-16T11:40:19.006Z,78.20
2019-03-16T11:42:48.250Z,76.40
2019-03-16T11:45:17.716Z,76.30
2019-03-16T11:47:47.062Z,76.70
2019-03-16T11:50:16.290Z,77.60
2019-03-16T11:52:45.487Z,77.30
2019-03-16T11:55:14.719Z,77.60
2019-03-16T11:57:43.923Z,77.50
2019-03-16T12:00:15.068Z,77.20
2019-03-16T12:02:44.292Z,77.80
2019-03-16T12:05:13.765Z,78.50
2019-03-16T12:07:42.975Z,78.20
2019-03-16T12:10:15.832Z,77.30
2019-03-16T12:12:45.139Z,77.70
2019-03-16T12:15:15.085Z,77.10
2019-03-16T12:17:44.284Z,77.40
2019-03-16T12:20:18.270Z,76.80
2019-03-16T12:22:48.113Z,76.90
2019-03-16T12:25:17.390Z,76.90
2019-03-16T12:27:46.617Z,76.70
2019-03-16T12:30:16.480Z,75.70
2019-03-16T12:32:45.746Z,75.80
2019-03-16T12:35:15.299Z,75.60
2019-03-16T12:37:44.524Z,75.50
2019-03-16T12:40:16.816Z,74.50
2019-03-16T12:42:46.035Z,75.20
2019-03-16T12:45:20.873Z,75.50
2019-03-16T12:47:50.093Z,75.30
2019-03-16T12:50:19.588Z,75.70
2019-03-16T12:52:48.987Z,75.50
2019-03-16T12:55:18.236Z,75.70
2019-03-16T12:57:48.130Z,74.90
2019-03-16T13:00:18.865Z,74.80
2019-03-16T13:02:48.268Z,74.80
2019-03-16T13:05:17.563Z,74.40
2019-03-16T13:07:47.181Z,75.10
2019-03-16T13:10:17.624Z,75.50
2019-03-16T13:12:46.936Z,75.80
2019-03-16T13:15:16.418Z,76.30
2019-03-16T13:17:45.636Z,76.90
2019-03-16T13:20:18.091Z,77.00
2019-03-16T13:22:47.331Z,77.10
2019-03-16T13:25:16.684Z,77.80
2019-03-16T13:27:45.916Z,78.40
2019-03-16T13:30:17.240Z,77.90
2019-03-16T13:32:46.460Z,77.90
2019-03-16T13:35:15.834Z,77.80
2019-03-16T13:37:45.458Z,77.70
2019-03-16T13:40:18.263Z,77.20
2019-03-16T13:42:47.487Z,76.90
2019-03-16T13:45:16.687Z,76.70
2019-03-16T13:47:45.921Z,76.10
2019-03-16T13:50:19.352Z,76.00
2019-03-16T13:52:48.963Z,75.80
2019-03-16T13:55:18.169Z,76.20
2019-03-16T13:57:47.384Z,75.90
2019-03-16T14:00:18.204Z,76.10
2019-03-16T14:02:47.425Z,76.30
2019-03-16T14:05:16.643Z,76.40
2019-03-16T14:07:46.133Z,76.50
2019-03-16T14:10:18.293Z,76.70
2019-03-16T14:12:47.555Z,77.00
2019-03-16T14:15:16.787Z,77.30
2019-03-16T14:17:45.988Z,76.90
2019-03-16T14:20:16.175Z,76.80
2019-03-16T14:22:45.390Z,76.40
2019-03-16T14:25:14.882Z,76.00
2019-03-16T14:27:44.078Z,76.60
2019-03-16T14:30:29.545Z,76.60
2019-03-16T14:32:49.606Z,76.00
2019-03-16T14:35:18.828Z,76.10
2019-03-16T14:37:48.059Z,76.10
2019-03-16T14:40:17.318Z,76.60
2019-03-16T14:42:46.671Z,75.70
2019-03-16T14:45:16.695Z,75.90
2019-03-16T14:47:45.991Z,75.60
2019-03-16T14:50:23.378Z,75.20
2019-03-16T14:52:52.587Z,75.20
2019-03-16T14:55:21.810Z,74.90
2019-03-16T14:57:51.028Z,74.50
2019-03-16T15:00:20.267Z,74.70
2019-03-16T15:02:49.467Z,74.60
2019-03-16T15:05:18.976Z,75.00
2019-03-16T15:07:49.779Z,73.80
2019-03-16T15:10:19.265Z,73.80
2019-03-16T15:12:48.468Z,73.80
2019-03-16T15:15:20.100Z,73.70
2019-03-16T15:17:49.327Z,74.10
2019-03-16T15:20:18.565Z,74.30
2019-03-16T15:22:47.758Z,74.40
2019-03-16T15:25:17.228Z,74.00
2019-03-16T15:27:46.428Z,74.30
2019-03-16T15:30:17.400Z,73.70
2019-03-16T15:32:46.592Z,74.50
2019-03-16T15:35:15.854Z,74.20
2019-03-16T15:37:45.096Z,75.10
2019-03-16T15:40:15.462Z,74.30
2019-03-16T15:42:44.687Z,74.40
2019-03-16T15:45:24.801Z,74.40
2019-03-16T15:47:54.025Z,76.10
2019-03-16T15:50:23.220Z,76.30
2019-03-16T15:52:52.448Z,74.50
2019-03-16T15:55:21.700Z,75.00
2019-03-16T15:57:50.913Z,74.20
2019-03-16T16:00:20.570Z,74.50
2019-03-16T16:02:50.058Z,74.00
2019-03-16T16:05:19.499Z,74.50
2019-03-16T16:07:48.736Z,74.40
2019-03-16T16:10:19.106Z,74.10
2019-03-16T16:12:48.297Z,74.70
2019-03-16T16:15:17.605Z,74.00
2019-03-16T16:17:46.891Z,73.60
2019-03-16T16:20:18.305Z,73.80
2019-03-16T16:22:47.547Z,73.10
2019-03-16T16:25:16.775Z,73.40
2019-03-16T16:27:46.026Z,74.10
2019-03-16T16:30:17.709Z,73.60
2019-03-16T16:32:46.935Z,73.80
2019-03-16T16:35:16.600Z,74.30
2019-03-16T16:37:45.808Z,73.60
2019-03-16T16:40:19.078Z,73.50
2019-03-16T16:42:48.319Z,74.00
2019-03-16T16:45:18.231Z,73.00
2019-03-16T16:47:47.590Z,73.70
2019-03-16T16:50:19.377Z,73.90
2019-03-16T16:52:48.575Z,73.10
2019-03-16T16:55:17.836Z,73.00
2019-03-16T16:57:47.345Z,73.10
2019-03-16T17:00:21.248Z,73.30
2019-03-16T17:02:50.515Z,73.30
2019-03-16T17:05:19.740Z,73.20
2019-03-16T17:07:48.991Z,73.30
2019-03-16T17:10:18.223Z,73.80
2019-03-16T17:12:47.435Z,73.30
2019-03-16T17:15:21.535Z,73.90
2019-03-16T17:17:52.301Z,73.90
2019-03-16T17:20:21.527Z,73.50
2019-03-16T17:22:50.749Z,73.90
2019-03-16T17:25:19.969Z,73.50
2019-03-16T17:27:49.179Z,73.90
2019-03-16T17:30:23.894Z,73.90
2019-03-16T17:32:53.133Z,74.00
2019-03-16T17:35:22.347Z,74.10
2019-03-16T17:37:51.610Z,74.40
2019-03-16T17:40:20.808Z,74.20
2019-03-16T17:42:50.101Z,74.20
2019-03-16T17:45:19.302Z,74.10
2019-03-16T17:47:48.518Z,74.20
2019-03-16T17:50:18.829Z,74.70
2019-03-16T17:52:48.112Z,74.30
2019-03-16T17:55:18.570Z,74.20
2019-03-16T17:57:47.843Z,74.00
2019-03-16T18:00:18.112Z,74.00
2019-03-16T18:02:51.896Z,73.90
2019-03-16T18:05:18.342Z,74.20
2019-03-16T18:07:48.619Z,74.10
2019-03-16T18:10:17.868Z,73.90
2019-03-16T18:12:47.154Z,74.40
2019-03-16T18:15:19.633Z,74.60
2019-03-16T18:17:48.878Z,74.50
2019-03-16T18:20:18.786Z,74.10
2019-03-16T18:22:48.202Z,74.40
2019-03-16T18:25:17.576Z,74.30
2019-03-16T18:27:46.876Z,74.50
2019-03-16T18:30:20.097Z,74.60
2019-03-16T18:32:49.295Z,74.60
2019-03-16T18:35:18.599Z,74.70
2019-03-16T18:37:47.804Z,74.70
2019-03-16T18:40:17.196Z,74.70
2019-03-16T18:42:46.793Z,74.50
2019-03-16T18:45:23.487Z,74.40
2019-03-16T18:47:52.692Z,74.60
2019-03-16T18:50:22.181Z,74.50
2019-03-16T18:52:51.406Z,75.00
2019-03-16T18:55:20.603Z,74.60
2019-03-16T18:57:49.831Z,74.60
2019-03-16T19:00:19.236Z,74.50
2019-03-16T19:02:49.543Z,74.40
2019-03-16T19:05:19.012Z,74.60
2019-03-16T19:07:48.248Z,75.10
2019-03-16T19:10:17.858Z,75.40
2019-03-16T19:12:47.061Z,75.70
2019-03-16T19:15:19.547Z,76.00
2019-03-16T19:17:58.684Z,76.20
2019-03-16T19:20:19.715Z,76.90
2019-03-16T19:22:49.011Z,77.00
2019-03-16T19:25:22.329Z,77.10
2019-03-16T19:27:51.533Z,77.10
2019-03-16T19:30:20.767Z,77.10
2019-03-16T19:32:49.975Z,77.20
2019-03-16T19:35:19.203Z,77.20
2019-03-16T19:37:48.429Z,77.40
2019-03-16T19:40:21.750Z,77.20
2019-03-16T19:42:50.982Z,77.30
2019-03-16T19:45:20.179Z,77.70
2019-03-16T19:47:49.407Z,77.80
2019-03-16T19:50:18.612Z,77.90
2019-03-16T19:52:47.995Z,78.10
2019-03-16T19:55:17.222Z,78.00
2019-03-16T19:57:46.426Z,78.20
2019-03-16T20:00:18.837Z,78.10
2019-03-16T20:02:51.291Z,78.20
2019-03-16T20:05:19.037Z,78.30
2019-03-16T20:07:48.553Z,78.40
2019-03-16T20:10:19.059Z,78.50
2019-03-16T20:12:48.297Z,78.50
2019-03-16T20:15:17.823Z,78.50
2019-03-16T20:17:47.024Z,78.50
2019-03-16T20:20:17.269Z,78.70
2019-03-16T20:22:46.481Z,78.80
2019-03-16T20:25:15.703Z,78.90
2019-03-16T20:27:44.927Z,79.00
2019-03-16T20:30:25.924Z,79.30
2019-03-16T20:33:02.270Z,79.40
2019-03-16T20:35:19.495Z,79.30
2019-03-16T20:37:48.787Z,79.50
2019-03-16T20:40:18.015Z,79.60
2019-03-16T20:42:47.290Z,79.70
2019-03-16T20:45:16.926Z,79.80
2019-03-16T20:47:46.549Z,79.90
2019-03-16T20:50:17.841Z,80.00
2019-03-16T20:52:47.108Z,80.20
2019-03-16T20:55:17.504Z,80.40
2019-03-16T20:57:46.776Z,80.40
2019-03-16T21:00:19.160Z,80.40
2019-03-16T21:02:48.369Z,80.60
2019-03-16T21:05:17.581Z,80.70
2019-03-16T21:07:47.126Z,80.80
2019-03-16T21:10:16.438Z,80.90
2019-03-16T21:12:45.960Z,81.00
2019-03-16T21:15:16.879Z,81.00
2019-03-16T21:17:46.096Z,81.10
2019-03-16T21:20:18.472Z,81.20
2019-03-16T21:22:47.692Z,81.20
2019-03-16T21:25:17.423Z,81.20
2019-03-16T21:27:46.635Z,81.40
2019-03-16T21:30:17.586Z,81.40
2019-03-16T21:32:47.134Z,81.50
2019-03-16T21:35:16.347Z,81.60
2019-03-16T21:37:45.549Z,81.80
2019-03-16T21:40:15.314Z,81.70
2019-03-16T21:42:44.512Z,81.90
2019-03-16T21:45:14.167Z,81.80
2019-03-16T21:47:43.385Z,81.80
2019-03-16T21:50:14.704Z,81.90
2019-03-16T21:52:44.797Z,82.00
2019-03-16T21:55:14.946Z,81.90
2019-03-16T21:57:44.157Z,82.00
2019-03-16T22:00:17.361Z,82.10
2019-03-16T22:02:46.614Z,82.10
2019-03-16T22:05:15.840Z,82.10
2019-03-16T22:07:45.034Z,82.20
2019-03-16T22:10:15.383Z,82.50
2019-03-16T22:12:44.612Z,82.50
2019-03-16T22:15:14.757Z,82.60
2019-03-16T22:17:43.976Z,82.80
2019-03-16T22:20:17.186Z,82.80
2019-03-16T22:22:46.413Z,82.60
2019-03-16T22:25:15.691Z,82.50
2019-03-16T22:27:44.904Z,82.80
2019-03-16T22:30:15.342Z,82.80
2019-03-16T22:32:44.633Z,82.70
2019-03-16T22:35:13.908Z,83.00
2019-03-16T22:37:44.196Z,83.10
2019-03-16T22:40:14.362Z,83.20
2019-03-16T22:42:43.758Z,83.00
2019-03-16T22:45:16.235Z,83.10
2019-03-16T22:47:45.471Z,83.40
2019-03-16T22:50:20.738Z,83.60
2019-03-16T22:52:50.006Z,83.60
2019-03-16T22:55:19.234Z,83.60
2019-03-16T22:57:49.495Z,84.00
2019-03-16T23:00:43.072Z,84.00
2019-03-16T23:03:14.123Z,84.30
2019-03-16T23:05:43.331Z,84.30
2019-03-16T23:08:13.522Z,84.30
2019-03-16T23:10:43.048Z,84.40
2019-03-16T23:13:12.553Z,84.40
2019-03-16T23:15:41.742Z,84.40
2019-03-16T23:18:10.963Z,84.30
2019-03-16T23:20:40.177Z,84.20
2019-03-16T23:23:10.358Z,84.30
2019-03-16T23:25:39.563Z,84.60
2019-03-16T23:28:08.783Z,85.00
2019-03-16T23:30:38.084Z,85.40
2019-03-16T23:33:07.430Z,85.40
2019-03-16T23:35:36.708Z,85.30
2019-03-16T23:38:05.944Z,85.40
2019-03-16T23:40:35.152Z,85.60
2019-03-16T23:43:04.351Z,85.60
2019-03-16T23:45:33.582Z,85.80
2019-03-16T23:48:02.779Z,86.00
2019-03-16T23:50:32.012Z,85.90
2019-03-16T23:53:01.309Z,85.80
2019-03-16T23:55:30.519Z,85.60
2019-03-16T23:57:59.728Z,85.70
